Time;durP1;ratioP1;P1;durP2;ratioP2;P2;SDS_P1;SDS_P2;PMS_P1;PMS_P2;Temp;Humidity;BMP_temperature;BMP_pressure;BME280_temperature;BME280_humidity;BME280_pressure;Samples;Min_cycle;Max_cycle;Signal;HPM_P1;HPM_P2
2022/03/06 00:00:25;;;;;;;22.50;12.18;;;;;;;;;;4955195;28;20105;-71
2022/03/06 00:02:52;;;;;;;23.15;12.30;;;;;;;;;;4955663;28;20058;-71
2022/03/06 00:05:18;;;;;;;20.27;12.13;;;;;;;;;;4954988;28;20051;-70
2022/03/06 00:07:45;;;;;;;22.70;12.18;;;;;;;;;;4955636;29;20059;-71
2022/03/06 00:10:12;;;;;;;20.85;11.80;;;;;;;;;;4955077;29;20059;-71
2022/03/06 00:12:38;;;;;;;21.08;12.30;;;;;;;;;;4955285;29;20102;-71
2022/03/06 00:15:06;;;;;;;24.83;14.40;;;;;;;;;;4955123;29;20059;-70
2022/03/06 00:17:32;;;;;;;26.20;13.82;;;;;;;;;;4957012;28;20051;-71
2022/03/06 00:20:01;;;;;;;24.63;13.25;;;;;;;;;;4953849;28;20051;-71
2022/03/06 00:22:28;;;;;;;20.58;12.43;;;;;;;;;;4955186;28;20139;-71
2022/03/06 00:24:56;;;;;;;29.65;15.55;;;;;;;;;;4955132;28;20047;-71
2022/03/06 00:27:23;;;;;;;26.63;14.38;;;;;;;;;;4955073;28;20055;-71
2022/03/06 00:29:49;;;;;;;22.90;13.73;;;;;;;;;;4954693;28;20051;-71
2022/03/06 00:32:16;;;;;;;23.95;13.18;;;;;;;;;;4950287;29;20054;-70
2022/03/06 00:34:42;;;;;;;22.95;12.02;;;;;;;;;;4946664;29;20055;-71
2022/03/06 00:37:09;;;;;;;21.20;12.27;;;;;;;;;;4954919;29;20482;-71
2022/03/06 00:39:36;;;;;;;19.98;11.43;;;;;;;;;;4954667;29;20055;-71
2022/03/06 00:42:02;;;;;;;24.65;13.30;;;;;;;;;;4954597;28;20051;-71
2022/03/06 00:44:31;;;;;;;18.50;11.27;;;;;;;;;;4954986;29;20138;-71
2022/03/06 00:46:58;;;;;;;25.48;14.18;;;;;;;;;;4937509;28;20434;-71
2022/03/06 00:49:26;;;;;;;21.08;11.70;;;;;;;;;;4935331;29;20486;-71
2022/03/06 00:51:52;;;;;;;21.67;12.50;;;;;;;;;;4935706;29;20055;-72
2022/03/06 00:54:19;;;;;;;22.35;12.90;;;;;;;;;;4945121;29;20054;-72
2022/03/06 00:56:47;;;;;;;21.92;11.88;;;;;;;;;;4954467;28;20102;-72
2022/03/06 00:59:13;;;;;;;21.25;11.88;;;;;;;;;;4954881;28;20051;-72
2022/03/06 01:01:40;;;;;;;20.85;11.90;;;;;;;;;;4954395;28;20050;-71
2022/03/06 01:04:07;;;;;;;20.15;12.05;;;;;;;;;;4954493;28;20501;-71
2022/03/06 01:06:34;;;;;;;24.73;12.85;;;;;;;;;;4954457;28;20047;-71
2022/03/06 01:09:00;;;;;;;21.27;12.65;;;;;;;;;;4954253;29;20473;-71
2022/03/06 01:11:27;;;;;;;20.50;11.80;;;;;;;;;;4953988;29;20055;-71
2022/03/06 01:13:53;;;;;;;22.08;12.50;;;;;;;;;;4954596;29;20047;-71
2022/03/06 01:16:20;;;;;;;20.15;11.45;;;;;;;;;;4954391;29;20102;-71
2022/03/06 01:18:47;;;;;;;22.30;12.70;;;;;;;;;;4954234;29;20054;-71
2022/03/06 01:21:13;;;;;;;19.92;11.30;;;;;;;;;;4953981;29;20069;-71
2022/03/06 01:23:40;;;;;;;20.60;11.80;;;;;;;;;;4954049;28;20047;-71
2022/03/06 01:26:07;;;;;;;19.23;11.13;;;;;;;;;;4954360;28;20054;-71
2022/03/06 01:28:33;;;;;;;23.08;11.68;;;;;;;;;;4954182;29;20117;-71
2022/03/06 01:31:00;;;;;;;18.08;10.48;;;;;;;;;;4941971;29;20091;-71
2022/03/06 01:33:26;;;;;;;20.23;11.43;;;;;;;;;;4934679;29;20055;-71
2022/03/06 01:35:53;;;;;;;19.65;10.70;;;;;;;;;;4934780;29;20086;-71
2022/03/06 01:38:20;;;;;;;20.92;11.88;;;;;;;;;;4934577;29;20578;-71
2022/03/06 01:40:46;;;;;;;22.27;11.95;;;;;;;;;;4934680;29;20055;-71
2022/03/06 01:43:13;;;;;;;19.73;10.75;;;;;;;;;;4934652;29;20115;-71
2022/03/06 01:45:40;;;;;;;20.27;11.85;;;;;;;;;;4934835;29;20470;-71
2022/03/06 01:48:09;;;;;;;19.10;10.70;;;;;;;;;;4934666;29;20110;-71
2022/03/06 01:50:36;;;;;;;19.27;10.57;;;;;;;;;;4934396;29;20104;-71
2022/03/06 01:53:05;;;;;;;19.00;10.07;;;;;;;;;;4934494;29;20130;-71
2022/03/06 01:55:32;;;;;;;22.00;10.65;;;;;;;;;;4934770;29;20056;-71
2022/03/06 01:58:01;;;;;;;20.98;11.82;;;;;;;;;;4934931;29;20111;-71
2022/03/06 02:00:30;;;;;;;22.00;11.65;;;;;;;;;;4934329;29;20051;-71
2022/03/06 02:02:57;;;;;;;23.35;11.63;;;;;;;;;;4934686;29;20420;-71
2022/03/06 02:05:25;;;;;;;20.38;11.48;;;;;;;;;;4934476;29;20052;-71
2022/03/06 02:07:52;;;;;;;17.92;10.52;;;;;;;;;;4934759;29;20060;-71
2022/03/06 02:10:20;;;;;;;21.13;11.30;;;;;;;;;;4939449;29;20126;-71
2022/03/06 02:12:48;;;;;;;20.50;11.25;;;;;;;;;;4953530;28;20110;-71
2022/03/06 02:15:16;;;;;;;20.08;10.90;;;;;;;;;;4953633;28;20059;-71
2022/03/06 02:17:44;;;;;;;21.50;10.45;;;;;;;;;;4953525;28;20125;-71
2022/03/06 02:20:14;;;;;;;17.60;10.35;;;;;;;;;;4953415;28;20366;-71
2022/03/06 02:22:46;;;;;;;20.15;11.45;;;;;;;;;;4953597;28;20047;-71
2022/03/06 02:25:17;;;;;;;19.55;10.68;;;;;;;;;;4953608;28;20470;-71
2022/03/06 02:27:44;;;;;;;21.13;11.43;;;;;;;;;;4953519;28;20051;-71
2022/03/06 02:30:13;;;;;;;19.33;11.30;;;;;;;;;;4953308;28;20047;-71
2022/03/06 02:32:40;;;;;;;18.10;10.77;;;;;;;;;;4953129;28;20110;-72
2022/03/06 02:35:08;;;;;;;20.73;10.93;;;;;;;;;;4952320;29;20106;-71
2022/03/06 02:37:34;;;;;;;22.10;11.70;;;;;;;;;;4952248;29;20122;-71
2022/03/06 02:40:06;;;;;;;20.40;12.02;;;;;;;;;;4937736;29;20048;-71
2022/03/06 02:42:34;;;;;;;22.30;12.05;;;;;;;;;;4934878;29;20111;-71
2022/03/06 02:45:09;;;;;;;21.77;11.50;;;;;;;;;;4937580;29;20110;-71
2022/03/06 02:47:36;;;;;;;20.95;11.98;;;;;;;;;;4937806;29;20467;-71
2022/03/06 02:50:05;;;;;;;20.13;11.40;;;;;;;;;;4937269;29;20091;-71
2022/03/06 02:52:31;;;;;;;21.70;12.00;;;;;;;;;;4940745;29;20486;-71
2022/03/06 02:54:58;;;;;;;22.63;13.40;;;;;;;;;;4956681;28;20110;-71
2022/03/06 02:57:25;;;;;;;22.55;12.35;;;;;;;;;;4956492;29;20055;-71
2022/03/06 02:59:51;;;;;;;19.88;11.10;;;;;;;;;;4956534;28;20122;-71
2022/03/06 03:02:18;;;;;;;24.08;11.73;;;;;;;;;;4956433;28;20055;-71
2022/03/06 03:04:44;;;;;;;20.45;11.57;;;;;;;;;;4956646;29;20453;-71
2022/03/06 03:07:11;;;;;;;20.60;11.65;;;;;;;;;;4955806;29;20466;-71
2022/03/06 03:09:38;;;;;;;21.42;12.00;;;;;;;;;;4956180;29;20110;-71
2022/03/06 03:12:05;;;;;;;20.15;11.68;;;;;;;;;;4956532;28;20557;-71
2022/03/06 03:14:33;;;;;;;22.83;12.60;;;;;;;;;;4956738;28;20090;-71
2022/03/06 03:17:00;;;;;;;19.38;11.30;;;;;;;;;;4956354;28;20110;-71
2022/03/06 03:19:27;;;;;;;22.88;12.25;;;;;;;;;;4956016;28;20083;-71
2022/03/06 03:21:54;;;;;;;23.33;12.77;;;;;;;;;;4946149;29;20127;-71
2022/03/06 03:24:21;;;;;;;23.58;11.98;;;;;;;;;;4937210;29;20099;-71
2022/03/06 03:26:48;;;;;;;22.08;11.80;;;;;;;;;;4936759;29;20102;-71
2022/03/06 03:29:14;;;;;;;21.00;11.57;;;;;;;;;;4936666;29;20055;-71
2022/03/06 03:31:41;;;;;;;23.35;11.95;;;;;;;;;;4936636;29;20051;-71
2022/03/06 03:34:08;;;;;;;19.30;11.05;;;;;;;;;;4936910;29;20048;-71
2022/03/06 03:36:34;;;;;;;21.10;11.23;;;;;;;;;;4936679;29;20048;-71
2022/03/06 03:39:01;;;;;;;22.05;12.23;;;;;;;;;;4939687;29;20111;-72
2022/03/06 03:41:28;;;;;;;21.42;11.82;;;;;;;;;;4937945;29;20048;-71
2022/03/06 03:43:54;;;;;;;21.33;12.15;;;;;;;;;;4936548;29;20565;-71
2022/03/06 03:46:21;;;;;;;23.73;11.90;;;;;;;;;;4936644;29;20051;-71
2022/03/06 03:48:48;;;;;;;24.77;12.68;;;;;;;;;;4936514;29;20142;-71
2022/03/06 03:51:15;;;;;;;20.98;11.85;;;;;;;;;;4936216;29;20099;-71
2022/03/06 03:53:41;;;;;;;22.40;11.93;;;;;;;;;;4936177;29;20056;-71
2022/03/06 03:56:08;;;;;;;21.27;11.38;;;;;;;;;;4936052;29;20056;-71
2022/03/06 03:58:35;;;;;;;21.33;11.85;;;;;;;;;;4936328;29;20569;-71
2022/03/06 04:01:02;;;;;;;24.23;12.65;;;;;;;;;;4935982;29;20499;-71
2022/03/06 04:03:29;;;;;;;21.33;11.85;;;;;;;;;;4936261;29;20059;-71
2022/03/06 04:05:56;;;;;;;21.60;12.48;;;;;;;;;;4936189;29;20102;-71
2022/03/06 04:08:22;;;;;;;23.00;11.40;;;;;;;;;;4936095;29;20103;-71
2022/03/06 04:10:49;;;;;;;21.95;12.75;;;;;;;;;;4935733;29;20099;-71
2022/03/06 04:13:16;;;;;;;20.55;12.02;;;;;;;;;;4935897;29;20055;-71
2022/03/06 04:15:45;;;;;;;19.92;11.40;;;;;;;;;;4936735;29;20059;-71
2022/03/06 04:18:11;;;;;;;22.67;12.63;;;;;;;;;;4936478;29;20056;-71
2022/03/06 04:20:38;;;;;;;22.15;12.70;;;;;;;;;;4935741;29;20123;-71
2022/03/06 04:23:05;;;;;;;21.27;11.68;;;;;;;;;;4943753;29;20059;-72
2022/03/06 04:25:31;;;;;;;21.17;11.60;;;;;;;;;;4946275;29;20048;-71
2022/03/06 04:27:58;;;;;;;20.95;11.90;;;;;;;;;;4937026;29;20095;-71
2022/03/06 04:30:25;;;;;;;19.80;11.80;;;;;;;;;;4954527;28;20098;-71
2022/03/06 04:32:55;;;;;;;19.50;11.25;;;;;;;;;;4955276;28;20058;-71
2022/03/06 04:35:21;;;;;;;21.95;12.95;;;;;;;;;;4949946;29;20055;-71
2022/03/06 04:37:48;;;;;;;22.60;12.00;;;;;;;;;;4935635;29;20491;-71
2022/03/06 04:40:15;;;;;;;23.05;12.70;;;;;;;;;;4935349;29;20514;-71
2022/03/06 04:42:42;;;;;;;21.00;12.43;;;;;;;;;;4935529;29;20051;-71
2022/03/06 04:45:09;;;;;;;22.95;12.60;;;;;;;;;;4935599;29;20091;-71
2022/03/06 04:47:36;;;;;;;22.42;12.23;;;;;;;;;;4935454;29;20056;-71
2022/03/06 04:50:03;;;;;;;23.50;12.70;;;;;;;;;;4934983;29;20051;-71
2022/03/06 04:52:30;;;;;;;21.60;11.57;;;;;;;;;;4935587;29;20130;-71
2022/03/06 04:54:56;;;;;;;23.88;12.27;;;;;;;;;;4935563;29;20055;-71
2022/03/06 04:57:23;;;;;;;24.35;13.48;;;;;;;;;;4935509;29;20055;-71
2022/03/06 04:59:50;;;;;;;25.20;12.15;;;;;;;;;;4935217;29;20099;-71
2022/03/06 05:02:16;;;;;;;20.08;11.00;;;;;;;;;;4935263;29;20051;-71
2022/03/06 05:04:43;;;;;;;22.67;13.45;;;;;;;;;;4935236;29;20491;-71
2022/03/06 05:07:10;;;;;;;20.40;12.20;;;;;;;;;;4934529;29;20047;-71
2022/03/06 05:09:36;;;;;;;21.70;11.48;;;;;;;;;;4935249;29;20051;-71
2022/03/06 05:12:03;;;;;;;22.55;12.50;;;;;;;;;;4934892;29;20471;-71
2022/03/06 05:14:30;;;;;;;27.17;12.75;;;;;;;;;;4935432;29;20558;-71
2022/03/06 05:16:57;;;;;;;21.27;12.05;;;;;;;;;;4937342;29;20048;-71
2022/03/06 05:19:24;;;;;;;19.55;11.25;;;;;;;;;;4934852;29;20060;-71
2022/03/06 05:21:51;;;;;;;23.38;12.52;;;;;;;;;;4935001;29;20107;-71
2022/03/06 05:24:17;;;;;;;23.25;13.02;;;;;;;;;;4942646;29;20058;-71
2022/03/06 05:26:44;;;;;;;20.92;12.00;;;;;;;;;;4949520;29;20048;-71
2022/03/06 05:29:11;;;;;;;20.23;12.07;;;;;;;;;;4934843;29;20052;-71
2022/03/06 05:31:37;;;;;;;22.35;12.88;;;;;;;;;;4943291;29;20106;-71
2022/03/06 05:34:04;;;;;;;20.40;11.80;;;;;;;;;;4954250;28;20047;-71
2022/03/06 05:36:31;;;;;;;25.02;13.32;;;;;;;;;;4954220;28;20489;-71
2022/03/06 05:38:57;;;;;;;22.48;12.48;;;;;;;;;;4950643;28;20059;-71
2022/03/06 05:41:24;;;;;;;24.33;13.50;;;;;;;;;;4952039;28;20498;-71
2022/03/06 05:43:50;;;;;;;20.00;11.50;;;;;;;;;;4946521;29;20083;-72
2022/03/06 05:46:18;;;;;;;21.65;11.93;;;;;;;;;;4954036;28;20055;-71
2022/03/06 05:48:44;;;;;;;23.10;12.95;;;;;;;;;;4953746;28;20047;-71
2022/03/06 05:51:11;;;;;;;23.90;13.00;;;;;;;;;;4953575;28;20047;-71
2022/03/06 05:53:37;;;;;;;21.75;12.27;;;;;;;;;;4953833;28;20047;-71
2022/03/06 05:56:04;;;;;;;23.50;12.55;;;;;;;;;;4953699;28;20047;-71
2022/03/06 05:58:31;;;;;;;22.55;11.48;;;;;;;;;;4953681;28;20055;-71
2022/03/06 06:00:57;;;;;;;23.48;12.63;;;;;;;;;;4951701;28;20051;-71
2022/03/06 06:03:25;;;;;;;22.77;12.65;;;;;;;;;;4952582;28;20102;-71
2022/03/06 06:05:52;;;;;;;21.48;11.77;;;;;;;;;;4935032;29;20051;-71
2022/03/06 06:08:22;;;;;;;22.55;12.02;;;;;;;;;;4934643;29;20059;-71
2022/03/06 06:10:49;;;;;;;25.27;13.75;;;;;;;;;;4934157;29;20431;-71
2022/03/06 06:13:15;;;;;;;25.48;13.82;;;;;;;;;;4948974;29;20566;-71
2022/03/06 06:15:45;;;;;;;20.65;11.82;;;;;;;;;;4953896;29;20126;-71
2022/03/06 06:18:12;;;;;;;22.52;12.77;;;;;;;;;;4955825;28;20051;-71
2022/03/06 06:20:39;;;;;;;23.42;13.45;;;;;;;;;;4950917;29;20048;-71
2022/03/06 06:23:06;;;;;;;25.08;13.90;;;;;;;;;;4938293;29;20051;-71
2022/03/06 06:25:33;;;;;;;22.95;13.57;;;;;;;;;;4938148;29;20055;-71
2022/03/06 06:28:00;;;;;;;21.67;12.68;;;;;;;;;;4937851;29;20533;-71
2022/03/06 06:30:27;;;;;;;22.88;13.00;;;;;;;;;;4941822;29;20114;-71
2022/03/06 06:32:53;;;;;;;25.00;13.63;;;;;;;;;;4957278;28;20051;-71
2022/03/06 06:35:20;;;;;;;22.13;13.43;;;;;;;;;;4956121;29;20058;-71
2022/03/06 06:37:47;;;;;;;25.58;13.65;;;;;;;;;;4957014;28;20502;-71
2022/03/06 06:40:14;;;;;;;25.10;13.38;;;;;;;;;;4954479;29;20466;-71
2022/03/06 06:42:40;;;;;;;23.85;14.07;;;;;;;;;;4937530;29;20067;-71
2022/03/06 06:45:07;;;;;;;27.58;13.82;;;;;;;;;;4938024;29;20052;-71
2022/03/06 06:47:34;;;;;;;21.65;12.95;;;;;;;;;;4937866;29;20114;-72
2022/03/06 06:50:00;;;;;;;27.20;14.07;;;;;;;;;;4937423;29;20051;-72
2022/03/06 06:52:27;;;;;;;31.65;15.18;;;;;;;;;;4936379;29;20495;-72
2022/03/06 06:54:54;;;;;;;28.23;15.23;;;;;;;;;;4937483;29;20055;-72
2022/03/06 06:57:20;;;;;;;30.95;16.25;;;;;;;;;;4936574;29;20059;-72
2022/03/06 06:59:47;;;;;;;30.08;16.67;;;;;;;;;;4937943;29;20059;-72
2022/03/06 07:02:14;;;;;;;35.95;18.55;;;;;;;;;;4939884;29;20451;-72
2022/03/06 07:04:41;;;;;;;32.30;18.13;;;;;;;;;;4937753;29;20134;-70
2022/03/06 07:07:07;;;;;;;36.55;20.13;;;;;;;;;;4937819;29;20059;-71
2022/03/06 07:09:34;;;;;;;34.67;19.38;;;;;;;;;;4937500;29;20083;-71
2022/03/06 07:12:01;;;;;;;38.53;20.45;;;;;;;;;;4953219;29;20106;-70
2022/03/06 07:14:27;;;;;;;34.58;19.17;;;;;;;;;;4956851;28;20059;-71
2022/03/06 07:16:54;;;;;;;34.53;20.05;;;;;;;;;;4956319;28;20106;-71
2022/03/06 07:19:20;;;;;;;34.38;19.73;;;;;;;;;;4956613;28;20054;-71
2022/03/06 07:21:47;;;;;;;33.05;17.90;;;;;;;;;;4956339;28;20502;-71
2022/03/06 07:24:14;;;;;;;29.98;17.27;;;;;;;;;;4956494;29;20098;-72
2022/03/06 07:26:40;;;;;;;30.17;15.38;;;;;;;;;;4956268;29;20106;-71
2022/03/06 07:29:07;;;;;;;25.92;14.73;;;;;;;;;;4955612;28;20102;-71
2022/03/06 07:31:34;;;;;;;23.23;12.43;;;;;;;;;;4955979;28;20094;-72
2022/03/06 07:34:00;;;;;;;24.13;12.90;;;;;;;;;;4956569;28;20075;-72
2022/03/06 07:36:27;;;;;;;22.92;13.15;;;;;;;;;;4956446;28;20054;-72
2022/03/06 07:38:54;;;;;;;24.45;12.48;;;;;;;;;;4956128;28;20051;-72
2022/03/06 07:41:20;;;;;;;30.08;12.68;;;;;;;;;;4945761;28;20052;-72
2022/03/06 07:43:47;;;;;;;21.70;11.93;;;;;;;;;;4937072;29;20499;-72
2022/03/06 07:46:13;;;;;;;25.17;14.05;;;;;;;;;;4937094;29;20122;-72
2022/03/06 07:48:40;;;;;;;22.92;13.25;;;;;;;;;;4936916;29;20052;-72
2022/03/06 07:51:07;;;;;;;22.92;12.73;;;;;;;;;;4936928;29;20048;-72
2022/03/06 07:53:33;;;;;;;24.23;13.55;;;;;;;;;;4937351;29;20134;-72
2022/03/06 07:56:00;;;;;;;25.70;14.88;;;;;;;;;;4937231;29;20106;-72
2022/03/06 07:58:27;;;;;;;26.00;14.13;;;;;;;;;;4937093;29;20103;-72
2022/03/06 08:00:53;;;;;;;18.10;11.73;;;;;;;;;;4935395;29;20104;-70
2022/03/06 08:03:20;;;;;;;20.80;12.73;;;;;;;;;;4936928;29;20474;-69
2022/03/06 08:05:47;;;;;;;21.55;13.00;;;;;;;;;;4936535;29;20103;-69
2022/03/06 08:08:14;;;;;;;20.30;12.38;;;;;;;;;;4936677;29;20055;-67
2022/03/06 08:10:41;;;;;;;24.92;13.60;;;;;;;;;;4937441;29;20095;-67
2022/03/06 08:13:08;;;;;;;23.52;12.35;;;;;;;;;;4953498;29;20047;-67
2022/03/06 08:15:34;;;;;;;19.88;11.68;;;;;;;;;;4953484;29;20502;-66
2022/03/06 08:18:01;;;;;;;21.77;12.50;;;;;;;;;;4953823;28;20051;-66
2022/03/06 08:20:28;;;;;;;23.92;11.98;;;;;;;;;;4952908;29;20071;-67
2022/03/06 08:22:54;;;;;;;20.17;12.00;;;;;;;;;;4952985;28;20051;-66
2022/03/06 08:25:21;;;;;;;17.85;11.50;;;;;;;;;;4953484;28;20539;-66
2022/03/06 08:27:47;;;;;;;19.83;11.88;;;;;;;;;;4953595;28;20055;-66
2022/03/06 08:30:14;;;;;;;21.42;11.73;;;;;;;;;;4952866;29;20051;-66
2022/03/06 08:32:41;;;;;;;19.83;10.93;;;;;;;;;;4953027;29;20094;-66
2022/03/06 08:35:08;;;;;;;18.88;11.90;;;;;;;;;;4952742;28;20105;-67
2022/03/06 08:37:35;;;;;;;19.73;11.18;;;;;;;;;;4953104;28;20062;-67
2022/03/06 08:40:03;;;;;;;21.00;12.20;;;;;;;;;;4952525;28;20125;-67
2022/03/06 08:42:30;;;;;;;21.00;11.82;;;;;;;;;;4934844;28;20055;-67
2022/03/06 08:44:56;;;;;;;16.10;10.63;;;;;;;;;;4933722;29;20102;-67
2022/03/06 08:47:23;;;;;;;18.38;11.38;;;;;;;;;;4933266;29;20055;-67
2022/03/06 08:49:50;;;;;;;21.38;11.50;;;;;;;;;;4932737;29;20114;-67
2022/03/06 08:52:17;;;;;;;20.10;11.80;;;;;;;;;;4948378;29;20075;-67
2022/03/06 08:54:43;;;;;;;20.75;11.20;;;;;;;;;;4952490;28;20047;-67
2022/03/06 08:57:10;;;;;;;20.92;13.05;;;;;;;;;;4952489;28;20074;-67
2022/03/06 08:59:37;;;;;;;19.50;11.57;;;;;;;;;;4952370;29;20074;-67
2022/03/06 09:02:04;;;;;;;22.92;11.93;;;;;;;;;;4951767;28;20181;-67
2022/03/06 09:04:33;;;;;;;21.63;11.63;;;;;;;;;;4952972;29;20063;-67
2022/03/06 09:06:59;;;;;;;19.63;11.68;;;;;;;;;;4952471;28;20051;-68
2022/03/06 09:09:26;;;;;;;20.13;11.68;;;;;;;;;;4952313;29;20164;-68
2022/03/06 09:11:53;;;;;;;18.35;11.63;;;;;;;;;;4951092;29;20051;-68
2022/03/06 09:14:19;;;;;;;16.67;11.48;;;;;;;;;;4952442;28;20055;-67
2022/03/06 09:16:46;;;;;;;18.00;11.82;;;;;;;;;;4951730;28;20114;-67
2022/03/06 09:19:12;;;;;;;19.73;11.52;;;;;;;;;;4952507;29;20059;-68
2022/03/06 09:21:39;;;;;;;19.80;11.23;;;;;;;;;;4951373;29;20458;-68
2022/03/06 09:24:08;;;;;;;19.83;11.07;;;;;;;;;;4952085;29;20117;-67
2022/03/06 09:26:35;;;;;;;20.80;10.63;;;;;;;;;;4952018;28;20537;-70
2022/03/06 09:29:02;;;;;;;18.15;10.55;;;;;;;;;;4951558;28;20062;-71
2022/03/06 09:31:29;;;;;;;18.40;10.35;;;;;;;;;;4951544;28;20078;-70
2022/03/06 09:33:56;;;;;;;17.65;10.38;;;;;;;;;;4952660;28;20075;-70
2022/03/06 09:36:42;;;;;;;17.92;11.48;;;;;;;;;;4952195;28;20142;-70
2022/03/06 09:39:09;;;;;;;18.05;10.63;;;;;;;;;;4951982;29;20055;-70
2022/03/06 09:41:40;;;;;;;18.25;10.52;;;;;;;;;;4951175;29;20055;-70
2022/03/06 09:44:08;;;;;;;19.80;11.07;;;;;;;;;;4951839;28;20059;-69
2022/03/06 09:46:36;;;;;;;17.33;10.60;;;;;;;;;;4951939;28;20055;-70
2022/03/06 09:49:04;;;;;;;21.13;11.00;;;;;;;;;;4951976;28;20130;-70
2022/03/06 09:51:38;;;;;;;16.52;9.88;;;;;;;;;;4943446;28;20048;-70
2022/03/06 09:54:09;;;;;;;18.15;10.18;;;;;;;;;;4931899;29;20055;-71
2022/03/06 09:56:36;;;;;;;19.05;10.48;;;;;;;;;;4932899;29;20059;-70
2022/03/06 09:59:03;;;;;;;14.70;8.77;;;;;;;;;;4932846;29;20051;-70
2022/03/06 10:01:29;;;;;;;14.73;9.85;;;;;;;;;;4939915;29;20123;-71
2022/03/06 10:03:56;;;;;;;16.40;10.65;;;;;;;;;;4934534;28;20066;-71
2022/03/06 10:06:23;;;;;;;19.73;10.23;;;;;;;;;;4932735;29;20240;-71
2022/03/06 10:09:04;;;;;;;17.30;10.60;;;;;;;;;;4932312;29;20070;-71
2022/03/06 10:11:31;;;;;;;15.00;9.00;;;;;;;;;;4932458;29;20095;-70
2022/03/06 10:13:57;;;;;;;16.45;9.27;;;;;;;;;;4948172;29;20376;-71
2022/03/06 10:16:24;;;;;;;17.58;9.63;;;;;;;;;;4951760;28;20055;-71
2022/03/06 10:18:53;;;;;;;13.48;9.05;;;;;;;;;;4938914;28;20708;-71
2022/03/06 10:21:21;;;;;;;14.27;8.82;;;;;;;;;;4938920;28;20051;-74
2022/03/06 10:24:01;;;;;;;15.10;9.55;;;;;;;;;;4944779;29;20057;-74
2022/03/06 10:26:29;;;;;;;14.15;8.82;;;;;;;;;;4945378;29;20051;-70
2022/03/06 10:28:57;;;;;;;15.82;9.30;;;;;;;;;;4937610;29;20063;-73
2022/03/06 10:31:26;;;;;;;15.25;8.43;;;;;;;;;;4940044;28;20055;-72
2022/03/06 10:34:00;;;;;;;15.35;8.75;;;;;;;;;;4937635;29;20515;-70
2022/03/06 10:36:47;;;;;;;14.98;8.60;;;;;;;;;;4941916;29;20106;-72
2022/03/06 10:39:19;;;;;;;14.75;8.65;;;;;;;;;;4948859;29;20056;-69
2022/03/06 10:41:51;;;;;;;13.68;8.40;;;;;;;;;;4942052;28;20051;-67
2022/03/06 10:44:19;;;;;;;13.30;8.30;;;;;;;;;;4942079;29;20055;-67
2022/03/06 10:47:04;;;;;;;12.90;8.48;;;;;;;;;;4958248;28;20055;-69
2022/03/06 10:49:32;;;;;;;12.63;7.82;;;;;;;;;;4946177;29;20142;-67
2022/03/06 10:52:19;;;;;;;13.35;8.43;;;;;;;;;;4946729;29;20495;-66
2022/03/06 10:54:54;;;;;;;13.32;8.50;;;;;;;;;;4940354;29;20051;-66
2022/03/06 10:57:22;;;;;;;15.65;8.45;;;;;;;;;;4943667;29;20570;-66
2022/03/06 10:59:49;;;;;;;14.02;8.43;;;;;;;;;;4936483;29;20047;-66
2022/03/06 11:02:16;;;;;;;14.32;8.52;;;;;;;;;;4941290;29;20103;-67
2022/03/06 11:04:47;;;;;;;14.77;8.48;;;;;;;;;;4941120;28;20570;-68
2022/03/06 11:07:14;;;;;;;15.02;7.90;;;;;;;;;;4945862;29;20069;-68
2022/03/06 11:09:40;;;;;;;12.68;8.07;;;;;;;;;;4940595;29;20467;-67
2022/03/06 11:12:07;;;;;;;14.32;8.23;;;;;;;;;;4924309;29;20487;-68
2022/03/06 11:14:34;;;;;;;15.05;8.40;;;;;;;;;;4945091;29;20096;-67
2022/03/06 11:17:01;;;;;;;12.90;8.45;;;;;;;;;;4942733;29;20062;-67
2022/03/06 11:19:27;;;;;;;13.27;8.38;;;;;;;;;;4940323;29;20111;-68
2022/03/06 11:21:58;;;;;;;12.05;8.05;;;;;;;;;;4940983;28;20468;-68
2022/03/06 11:24:28;;;;;;;10.57;7.25;;;;;;;;;;4940810;29;20047;-68
2022/03/06 11:27:05;;;;;;;11.73;7.90;;;;;;;;;;4942399;29;20059;-69
2022/03/06 11:29:49;;;;;;;12.80;7.47;;;;;;;;;;4940032;29;20055;-68
2022/03/06 11:32:24;;;;;;;11.65;7.55;;;;;;;;;;4942642;28;20456;-68
2022/03/06 11:34:53;;;;;;;11.88;7.75;;;;;;;;;;4939674;29;20181;-70
2022/03/06 11:37:20;;;;;;;11.57;7.30;;;;;;;;;;4942114;28;20064;-69
2022/03/06 11:39:48;;;;;;;11.52;7.95;;;;;;;;;;4943108;28;20051;-70
2022/03/06 11:42:49;;;;;;;12.15;7.82;;;;;;;;;;4950266;28;20034;-70
2022/03/06 11:45:52;;;;;;;13.18;7.50;;;;;;;;;;4951630;29;20484;-68
2022/03/06 11:48:35;;;;;;;10.25;7.13;;;;;;;;;;4945374;29;20074;-68
2022/03/06 11:51:28;;;;;;;12.70;8.35;;;;;;;;;;4945519;29;20063;-71
2022/03/06 11:54:14;;;;;;;12.35;8.70;;;;;;;;;;4965325;28;20102;-69
2022/03/06 11:56:56;;;;;;;10.93;7.70;;;;;;;;;;4925812;29;20442;-70
2022/03/06 11:59:35;;;;;;;13.80;7.60;;;;;;;;;;4943383;29;20130;-69
2022/03/06 12:02:32;;;;;;;14.25;8.38;;;;;;;;;;4947420;29;20126;-70
2022/03/06 12:05:02;;;;;;;14.23;8.02;;;;;;;;;;4923509;29;20055;-70
2022/03/06 12:07:46;;;;;;;12.70;8.25;;;;;;;;;;4948098;28;20062;-65
2022/03/06 12:10:31;;;;;;;;;;;;;;;;;;;;;
2022/03/06 12:13:05;;;;;;;13.25;7.45;;;;;;;;;;4954071;29;20513;-67
2022/03/06 12:15:34;;;;;;;11.32;7.82;;;;;;;;;;4944918;28;21012;-68
2022/03/06 12:18:03;;;;;;;12.38;7.38;;;;;;;;;;4953138;29;20055;-68
2022/03/06 12:21:47;;;;;;;12.63;7.43;;;;;;;;;;4947611;29;20052;-68
2022/03/06 12:24:11;;;;;;;13.73;7.43;;;;;;;;;;4948203;29;20047;-66
2022/03/06 12:26:52;;;;;;;;;;;;;;;;;;;;;
2022/03/06 12:29:51;;;;;;;13.00;7.40;;;;;;;;;;4960103;28;20055;-66
2022/03/06 12:32:25;;;;;;;10.50;7.20;;;;;;;;;;4944382;29;20131;-67
2022/03/06 12:34:56;;;;;;;10.75;7.68;;;;;;;;;;4950395;28;20074;-68
2022/03/06 12:37:44;;;;;;;12.73;7.40;;;;;;;;;;4944532;29;20090;-68
2022/03/06 12:40:13;;;;;;;9.88;7.85;;;;;;;;;;4946082;28;20086;-67
2022/03/06 12:42:56;;;;;;;;;;;;;;;;;;;;;
2022/03/06 12:45:25;;;;;;;10.10;7.50;;;;;;;;;;4945695;28;20106;-68
2022/03/06 12:47:55;;;;;;;10.40;7.93;;;;;;;;;;4943058;29;20090;-67
2022/03/06 12:50:22;;;;;;;8.07;6.97;;;;;;;;;;4945445;29;20074;-68
2022/03/06 12:52:53;;;;;;;9.98;7.47;;;;;;;;;;4944477;28;20059;-67
2022/03/06 12:55:20;;;;;;;9.98;7.40;;;;;;;;;;4946659;29;20088;-68
2022/03/06 12:57:49;;;;;;;11.38;7.30;;;;;;;;;;4944280;28;20048;-68
2022/03/06 13:00:21;;;;;;;10.95;7.25;;;;;;;;;;4943593;29;20048;-68
2022/03/06 13:02:59;;;;;;;9.32;6.50;;;;;;;;;;4944724;29;20554;-68
2022/03/06 13:05:26;;;;;;;10.88;6.85;;;;;;;;;;4947566;29;20529;-67
2022/03/06 13:07:54;;;;;;;10.40;7.63;;;;;;;;;;4943576;28;20047;-68
2022/03/06 13:10:22;;;;;;;9.65;7.00;;;;;;;;;;4940369;28;20682;-69
2022/03/06 13:12:53;;;;;;;9.05;6.97;;;;;;;;;;4942793;29;20083;-67
2022/03/06 13:15:24;;;;;;;12.30;7.90;;;;;;;;;;4947070;28;20055;-67
2022/03/06 13:18:01;;;;;;;11.23;7.25;;;;;;;;;;4944177;29;20054;-68
2022/03/06 13:20:38;;;;;;;11.48;7.40;;;;;;;;;;4943265;29;20102;-68
2022/03/06 13:23:06;;;;;;;11.70;7.32;;;;;;;;;;4946678;29;20043;-68
2022/03/06 13:25:35;;;;;;;14.25;8.10;;;;;;;;;;4945216;29;20413;-68
2022/03/06 13:28:01;;;;;;;11.63;7.65;;;;;;;;;;4942861;28;20051;-70
2022/03/06 13:30:32;;;;;;;10.73;7.75;;;;;;;;;;4944532;28;20047;-72
2022/03/06 13:33:00;;;;;;;9.50;6.85;;;;;;;;;;4946765;28;20105;-67
2022/03/06 13:35:30;;;;;;;12.13;6.95;;;;;;;;;;4944289;28;20055;-67
2022/03/06 13:38:03;;;;;;;9.30;6.70;;;;;;;;;;4939981;29;20103;-67
2022/03/06 13:40:34;;;;;;;;;;;;;;;;;;4938215;29;20200;-67
2022/03/06 13:43:00;;;;;;;11.82;7.68;;;;;;;;;;4942751;28;20353;-68
2022/03/06 13:45:27;;;;;;;13.18;8.57;;;;;;;;;;4942028;29;20303;-66
2022/03/06 13:47:58;;;;;;;10.38;7.32;;;;;;;;;;4942391;28;20082;-67
2022/03/06 13:50:26;;;;;;;9.80;7.32;;;;;;;;;;4939276;29;20051;-68
2022/03/06 13:52:54;;;;;;;11.27;7.45;;;;;;;;;;4937271;28;20055;-67
2022/03/06 13:55:21;;;;;;;12.15;7.93;;;;;;;;;;4940443;29;20590;-67
2022/03/06 13:58:11;;;;;;;10.07;7.30;;;;;;;;;;4940349;28;20106;-67
2022/03/06 14:01:04;;;;;;;13.02;7.78;;;;;;;;;;4944035;28;20422;-68
2022/03/06 14:03:37;;;;;;;13.02;7.25;;;;;;;;;;4948211;28;20044;-69
2022/03/06 14:06:05;;;;;;;11.18;7.85;;;;;;;;;;4944338;29;20466;-69
2022/03/06 14:08:42;;;;;;;11.52;7.65;;;;;;;;;;4942114;29;20063;-68
2022/03/06 14:11:30;;;;;;;10.45;7.30;;;;;;;;;;4942635;28;20502;-66
2022/03/06 14:13:58;;;;;;;10.60;7.20;;;;;;;;;;4946266;29;20051;-67
2022/03/06 14:16:30;;;;;;;11.55;7.60;;;;;;;;;;4943662;28;20055;-68
2022/03/06 14:19:02;;;;;;;11.73;7.70;;;;;;;;;;4944473;29;20459;-67
2022/03/06 14:21:32;;;;;;;13.85;8.35;;;;;;;;;;4943541;28;20063;-66
2022/03/06 14:24:10;;;;;;;11.40;8.02;;;;;;;;;;4942789;29;20043;-67
2022/03/06 14:26:46;;;;;;;10.25;7.78;;;;;;;;;;4940763;29;20934;-67
2022/03/06 14:29:15;;;;;;;11.57;7.47;;;;;;;;;;4943538;29;21222;-67
2022/03/06 14:31:51;;;;;;;10.60;7.18;;;;;;;;;;4942780;29;20133;-67
2022/03/06 14:34:18;;;;;;;12.55;8.25;;;;;;;;;;4941223;29;20055;-68